sensor_id;sensor_type;location;lat;lon;timestamp;temperature;humidity
47765;DHT22;33529;49.242;8.670;2024-02-26T00:02:14;7.90;99.90
47765;DHT22;33529;49.242;8.670;2024-02-26T00:04:41;7.90;99.90
47765;DHT22;33529;49.242;8.670;2024-02-26T00:07:08;7.90;99.90
47765;DHT22;33529;49.242;8.670;2024-02-26T00:09:35;7.80;99.90
47765;DHT22;33529;49.242;8.670;2024-02-26T00:12:04;7.80;99.90
47765;DHT22;33529;49.242;8.670;2024-02-26T00:14:31;7.90;99.90
47765;DHT22;33529;49.242;8.670;2024-02-26T00:16:58;7.80;99.90
47765;DHT22;33529;49.242;8.670;2024-02-26T00:19:25;7.80;99.90
47765;DHT22;33529;49.242;8.670;2024-02-26T00:21:52;7.80;99.90
47765;DHT22;33529;49.242;8.670;2024-02-26T00:24:20;7.80;99.90
47765;DHT22;33529;49.242;8.670;2024-02-26T00:26:47;7.80;99.90
47765;DHT22;33529;49.242;8.670;2024-02-26T00:29:19;7.90;99.90
47765;DHT22;33529;49.242;8.670;2024-02-26T00:31:46;7.90;99.90
47765;DHT22;33529;49.242;8.670;2024-02-26T00:34:13;7.80;99.90
47765;DHT22;33529;49.242;8.670;2024-02-26T00:36:40;7.90;99.90
47765;DHT22;33529;49.242;8.670;2024-02-26T00:39:07;8.00;99.90
47765;DHT22;33529;49.242;8.670;2024-02-26T00:41:38;7.90;99.90
47765;DHT22;33529;49.242;8.670;2024-02-26T00:44:05;7.90;99.90
47765;DHT22;33529;49.242;8.670;2024-02-26T00:46:32;7.80;99.90
47765;DHT22;33529;49.242;8.670;2024-02-26T00:48:59;7.70;99.90
47765;DHT22;33529;49.242;8.670;2024-02-26T00:51:27;7.70;99.90
47765;DHT22;33529;49.242;8.670;2024-02-26T00:53:54;7.60;99.90
47765;DHT22;33529;49.242;8.670;2024-02-26T00:56:22;7.60;99.90
47765;DHT22;33529;49.242;8.670;2024-02-26T00:58:49;7.60;99.90
47765;DHT22;33529;49.242;8.670;2024-02-26T01:01:16;7.70;99.90
47765;DHT22;33529;49.242;8.670;2024-02-26T01:03:43;7.60;99.90
47765;DHT22;33529;49.242;8.670;2024-02-26T01:06:09;7.60;99.90
47765;DHT22;33529;49.242;8.670;2024-02-26T01:08:36;7.60;99.90
47765;DHT22;33529;49.242;8.670;2024-02-26T01:11:04;7.60;99.90
47765;DHT22;33529;49.242;8.670;2024-02-26T01:13:31;7.60;99.90
47765;DHT22;33529;49.242;8.670;2024-02-26T01:15:58;7.70;99.90
47765;DHT22;33529;49.242;8.670;2024-02-26T01:18:25;7.60;99.90
47765;DHT22;33529;49.242;8.670;2024-02-26T01:20:52;7.70;99.90
47765;DHT22;33529;49.242;8.670;2024-02-26T01:23:21;7.70;99.90
47765;DHT22;33529;49.242;8.670;2024-02-26T01:25:48;7.70;99.90
47765;DHT22;33529;49.242;8.670;2024-02-26T01:28:15;7.70;99.90
47765;DHT22;33529;49.242;8.670;2024-02-26T01:30:42;7.70;99.90
47765;DHT22;33529;49.242;8.670;2024-02-26T01:33:09;7.70;99.90
47765;DHT22;33529;49.242;8.670;2024-02-26T01:35:36;7.70;99.90
47765;DHT22;33529;49.242;8.670;2024-02-26T01:38:03;7.70;99.90
47765;DHT22;33529;49.242;8.670;2024-02-26T01:40:30;7.70;99.90
47765;DHT22;33529;49.242;8.670;2024-02-26T01:42:57;7.70;99.90
47765;DHT22;33529;49.242;8.670;2024-02-26T01:45:24;7.70;99.90
47765;DHT22;33529;49.242;8.670;2024-02-26T01:47:52;7.80;99.90
47765;DHT22;33529;49.242;8.670;2024-02-26T01:50:20;7.70;99.90
47765;DHT22;33529;49.242;8.670;2024-02-26T01:52:50;7.70;99.90
47765;DHT22;33529;49.242;8.670;2024-02-26T01:55:18;7.60;99.90
47765;DHT22;33529;49.242;8.670;2024-02-26T01:57:48;7.60;99.90
47765;DHT22;33529;49.242;8.670;2024-02-26T02:00:16;7.70;99.90
47765;DHT22;33529;49.242;8.670;2024-02-26T02:02:44;7.70;99.90
47765;DHT22;33529;49.242;8.670;2024-02-26T02:05:15;7.70;99.90
47765;DHT22;33529;49.242;8.670;2024-02-26T02:07:44;7.60;99.90
47765;DHT22;33529;49.242;8.670;2024-02-26T02:10:11;7.60;99.90
47765;DHT22;33529;49.242;8.670;2024-02-26T02:12:38;7.60;99.90
47765;DHT22;33529;49.242;8.670;2024-02-26T02:15:07;7.60;99.90
47765;DHT22;33529;49.242;8.670;2024-02-26T02:17:34;7.60;99.90
47765;DHT22;33529;49.242;8.670;2024-02-26T02:20:01;7.60;99.90
47765;DHT22;33529;49.242;8.670;2024-02-26T02:22:29;7.60;99.90
47765;DHT22;33529;49.242;8.670;2024-02-26T02:24:56;7.70;99.90
47765;DHT22;33529;49.242;8.670;2024-02-26T02:27:23;7.60;99.90
47765;DHT22;33529;49.242;8.670;2024-02-26T02:29:50;7.60;99.90
47765;DHT22;33529;49.242;8.670;2024-02-26T02:32:17;7.60;99.90
47765;DHT22;33529;49.242;8.670;2024-02-26T02:34:45;7.60;99.90
47765;DHT22;33529;49.242;8.670;2024-02-26T02:37:12;7.50;99.90
47765;DHT22;33529;49.242;8.670;2024-02-26T02:39:39;7.50;99.90
47765;DHT22;33529;49.242;8.670;2024-02-26T02:42:06;7.50;99.90
47765;DHT22;33529;49.242;8.670;2024-02-26T02:44:33;7.50;99.90
47765;DHT22;33529;49.242;8.670;2024-02-26T02:46:59;7.40;99.90
47765;DHT22;33529;49.242;8.670;2024-02-26T02:49:27;7.40;99.90
47765;DHT22;33529;49.242;8.670;2024-02-26T02:51:54;7.50;99.90
47765;DHT22;33529;49.242;8.670;2024-02-26T02:54:21;7.40;99.90
47765;DHT22;33529;49.242;8.670;2024-02-26T02:56:48;7.40;99.90
47765;DHT22;33529;49.242;8.670;2024-02-26T02:59:15;7.50;99.90
47765;DHT22;33529;49.242;8.670;2024-02-26T03:01:42;7.50;99.90
47765;DHT22;33529;49.242;8.670;2024-02-26T03:04:09;7.50;99.90
47765;DHT22;33529;49.242;8.670;2024-02-26T03:06:36;7.50;99.90
47765;DHT22;33529;49.242;8.670;2024-02-26T03:09:04;7.50;99.90
47765;DHT22;33529;49.242;8.670;2024-02-26T03:11:32;7.60;99.90
47765;DHT22;33529;49.242;8.670;2024-02-26T03:13:59;7.60;99.90
47765;DHT22;33529;49.242;8.670;2024-02-26T03:16:26;7.60;99.90
47765;DHT22;33529;49.242;8.670;2024-02-26T03:18:53;7.60;99.90
47765;DHT22;33529;49.242;8.670;2024-02-26T03:21:21;7.60;99.90
47765;DHT22;33529;49.242;8.670;2024-02-26T03:23:48;7.60;99.90
47765;DHT22;33529;49.242;8.670;2024-02-26T03:26:15;7.50;99.90
47765;DHT22;33529;49.242;8.670;2024-02-26T03:28:42;7.40;99.90
47765;DHT22;33529;49.242;8.670;2024-02-26T03:31:09;7.40;99.90
47765;DHT22;33529;49.242;8.670;2024-02-26T03:33:37;7.50;99.90
47765;DHT22;33529;49.242;8.670;2024-02-26T03:36:04;7.40;99.90
47765;DHT22;33529;49.242;8.670;2024-02-26T03:38:31;7.40;99.90
47765;DHT22;33529;49.242;8.670;2024-02-26T03:40:58;7.40;99.90
47765;DHT22;33529;49.242;8.670;2024-02-26T03:43:25;7.30;99.90
47765;DHT22;33529;49.242;8.670;2024-02-26T03:45:52;7.30;99.90
47765;DHT22;33529;49.242;8.670;2024-02-26T03:48:19;7.30;99.90
47765;DHT22;33529;49.242;8.670;2024-02-26T03:50:46;7.30;99.90
47765;DHT22;33529;49.242;8.670;2024-02-26T03:53:13;7.30;99.90
47765;DHT22;33529;49.242;8.670;2024-02-26T03:55:40;7.20;99.90
47765;DHT22;33529;49.242;8.670;2024-02-26T03:58:08;7.20;99.90
47765;DHT22;33529;49.242;8.670;2024-02-26T04:00:36;7.20;99.90
47765;DHT22;33529;49.242;8.670;2024-02-26T04:03:04;7.20;99.90
47765;DHT22;33529;49.242;8.670;2024-02-26T04:05:31;7.10;99.90
47765;DHT22;33529;49.242;8.670;2024-02-26T04:07:57;7.10;99.90
47765;DHT22;33529;49.242;8.670;2024-02-26T04:10:24;7.10;99.90
47765;DHT22;33529;49.242;8.670;2024-02-26T04:12:51;7.10;99.90
47765;DHT22;33529;49.242;8.670;2024-02-26T04:15:18;7.10;99.90
47765;DHT22;33529;49.242;8.670;2024-02-26T04:17:45;7.10;99.90
47765;DHT22;33529;49.242;8.670;2024-02-26T04:20:15;7.10;99.90
47765;DHT22;33529;49.242;8.670;2024-02-26T04:22:44;7.00;99.90
47765;DHT22;33529;49.242;8.670;2024-02-26T04:25:11;7.00;99.90
47765;DHT22;33529;49.242;8.670;2024-02-26T04:27:38;7.00;99.90
47765;DHT22;33529;49.242;8.670;2024-02-26T04:30:06;7.00;99.90
47765;DHT22;33529;49.242;8.670;2024-02-26T04:32:34;6.90;99.90
47765;DHT22;33529;49.242;8.670;2024-02-26T04:35:02;6.90;99.90
47765;DHT22;33529;49.242;8.670;2024-02-26T04:37:29;6.90;99.90
47765;DHT22;33529;49.242;8.670;2024-02-26T04:40:01;6.90;99.90
47765;DHT22;33529;49.242;8.670;2024-02-26T04:42:29;6.90;99.90
47765;DHT22;33529;49.242;8.670;2024-02-26T04:44:56;6.90;99.90
47765;DHT22;33529;49.242;8.670;2024-02-26T04:47:23;6.90;99.90
47765;DHT22;33529;49.242;8.670;2024-02-26T04:49:50;7.00;99.90
47765;DHT22;33529;49.242;8.670;2024-02-26T04:52:19;7.00;99.90
47765;DHT22;33529;49.242;8.670;2024-02-26T04:54:45;7.10;99.90
47765;DHT22;33529;49.242;8.670;2024-02-26T04:57:12;7.00;99.90
47765;DHT22;33529;49.242;8.670;2024-02-26T04:59:39;7.00;99.90
47765;DHT22;33529;49.242;8.670;2024-02-26T05:02:07;7.10;99.90
47765;DHT22;33529;49.242;8.670;2024-02-26T05:04:34;7.10;99.90
47765;DHT22;33529;49.242;8.670;2024-02-26T05:07:01;7.10;99.90
47765;DHT22;33529;49.242;8.670;2024-02-26T05:09:29;7.10;99.90
47765;DHT22;33529;49.242;8.670;2024-02-26T05:11:55;7.10;99.90
47765;DHT22;33529;49.242;8.670;2024-02-26T05:14:22;7.00;99.90
47765;DHT22;33529;49.242;8.670;2024-02-26T05:16:49;7.10;99.90
47765;DHT22;33529;49.242;8.670;2024-02-26T05:19:16;7.00;99.90
47765;DHT22;33529;49.242;8.670;2024-02-26T05:21:43;6.90;99.90
47765;DHT22;33529;49.242;8.670;2024-02-26T05:24:10;6.80;99.90
47765;DHT22;33529;49.242;8.670;2024-02-26T05:26:37;6.80;99.90
47765;DHT22;33529;49.242;8.670;2024-02-26T05:29:04;6.80;99.90
47765;DHT22;33529;49.242;8.670;2024-02-26T05:31:31;6.80;99.90
47765;DHT22;33529;49.242;8.670;2024-02-26T05:33:58;6.80;99.90
47765;DHT22;33529;49.242;8.670;2024-02-26T05:36:25;6.80;99.90
47765;DHT22;33529;49.242;8.670;2024-02-26T05:38:52;6.70;99.90
47765;DHT22;33529;49.242;8.670;2024-02-26T05:41:19;6.60;99.90
47765;DHT22;33529;49.242;8.670;2024-02-26T05:43:50;6.60;99.90
47765;DHT22;33529;49.242;8.670;2024-02-26T05:46:17;6.60;99.90
47765;DHT22;33529;49.242;8.670;2024-02-26T05:48:47;6.60;99.90
47765;DHT22;33529;49.242;8.670;2024-02-26T05:51:16;6.60;99.90
47765;DHT22;33529;49.242;8.670;2024-02-26T05:53:43;6.70;99.90
47765;DHT22;33529;49.242;8.670;2024-02-26T05:56:10;6.60;99.90
47765;DHT22;33529;49.242;8.670;2024-02-26T05:58:37;6.60;99.90
47765;DHT22;33529;49.242;8.670;2024-02-26T06:01:04;6.60;99.90
47765;DHT22;33529;49.242;8.670;2024-02-26T06:03:31;6.60;99.90
47765;DHT22;33529;49.242;8.670;2024-02-26T06:05:58;6.60;99.90
47765;DHT22;33529;49.242;8.670;2024-02-26T06:08:25;6.70;99.90
47765;DHT22;33529;49.242;8.670;2024-02-26T06:10:52;6.70;99.90
47765;DHT22;33529;49.242;8.670;2024-02-26T06:13:18;6.80;99.90
47765;DHT22;33529;49.242;8.670;2024-02-26T06:15:45;6.80;99.90
47765;DHT22;33529;49.242;8.670;2024-02-26T06:18:13;6.70;99.90
47765;DHT22;33529;49.242;8.670;2024-02-26T06:20:40;6.70;99.90
47765;DHT22;33529;49.242;8.670;2024-02-26T06:23:07;6.70;99.90
47765;DHT22;33529;49.242;8.670;2024-02-26T06:25:34;6.70;99.90
47765;DHT22;33529;49.242;8.670;2024-02-26T06:28:01;6.70;99.90
47765;DHT22;33529;49.242;8.670;2024-02-26T06:30:28;6.70;99.90
47765;DHT22;33529;49.242;8.670;2024-02-26T06:32:55;6.50;99.90
47765;DHT22;33529;49.242;8.670;2024-02-26T06:35:22;6.50;99.90
47765;DHT22;33529;49.242;8.670;2024-02-26T06:37:51;6.60;99.90
47765;DHT22;33529;49.242;8.670;2024-02-26T06:40:19;6.60;99.90
47765;DHT22;33529;49.242;8.670;2024-02-26T06:42:47;6.60;99.90
47765;DHT22;33529;49.242;8.670;2024-02-26T06:45:15;6.60;99.90
47765;DHT22;33529;49.242;8.670;2024-02-26T06:47:42;6.60;99.90
47765;DHT22;33529;49.242;8.670;2024-02-26T06:50:11;6.60;99.90
47765;DHT22;33529;49.242;8.670;2024-02-26T06:52:38;6.60;99.90
47765;DHT22;33529;49.242;8.670;2024-02-26T06:55:05;6.70;99.90
47765;DHT22;33529;49.242;8.670;2024-02-26T06:57:35;6.60;99.90
47765;DHT22;33529;49.242;8.670;2024-02-26T07:00:02;6.70;99.90
47765;DHT22;33529;49.242;8.670;2024-02-26T07:02:31;6.70;99.90
47765;DHT22;33529;49.242;8.670;2024-02-26T07:04:58;6.80;99.90
47765;DHT22;33529;49.242;8.670;2024-02-26T07:07:25;6.80;99.90
47765;DHT22;33529;49.242;8.670;2024-02-26T07:09:52;6.90;99.90
47765;DHT22;33529;49.242;8.670;2024-02-26T07:12:19;6.90;99.90
47765;DHT22;33529;49.242;8.670;2024-02-26T07:14:48;6.90;99.90
47765;DHT22;33529;49.242;8.670;2024-02-26T07:17:16;7.00;99.90
47765;DHT22;33529;49.242;8.670;2024-02-26T07:19:43;7.00;99.90
47765;DHT22;33529;49.242;8.670;2024-02-26T07:22:10;7.00;99.90
47765;DHT22;33529;49.242;8.670;2024-02-26T07:24:37;7.10;99.90
47765;DHT22;33529;49.242;8.670;2024-02-26T07:27:03;7.00;99.90
47765;DHT22;33529;49.242;8.670;2024-02-26T07:29:31;7.00;99.90
47765;DHT22;33529;49.242;8.670;2024-02-26T07:31:58;7.00;99.90
47765;DHT22;33529;49.242;8.670;2024-02-26T07:34:25;7.10;99.90
47765;DHT22;33529;49.242;8.670;2024-02-26T07:36:56;7.00;99.90
47765;DHT22;33529;49.242;8.670;2024-02-26T07:39:23;7.10;99.90
47765;DHT22;33529;49.242;8.670;2024-02-26T07:41:50;7.00;99.90
47765;DHT22;33529;49.242;8.670;2024-02-26T07:44:19;6.90;99.90
47765;DHT22;33529;49.242;8.670;2024-02-26T07:46:46;6.90;99.90
47765;DHT22;33529;49.242;8.670;2024-02-26T07:49:13;7.00;99.90
47765;DHT22;33529;49.242;8.670;2024-02-26T07:51:40;7.00;99.90
47765;DHT22;33529;49.242;8.670;2024-02-26T07:54:07;7.00;99.90
47765;DHT22;33529;49.242;8.670;2024-02-26T07:56:34;7.00;99.90
47765;DHT22;33529;49.242;8.670;2024-02-26T07:59:01;7.00;99.90
47765;DHT22;33529;49.242;8.670;2024-02-26T08:01:28;7.10;99.90
47765;DHT22;33529;49.242;8.670;2024-02-26T08:03:55;7.10;99.90
47765;DHT22;33529;49.242;8.670;2024-02-26T08:06:23;7.10;99.90
47765;DHT22;33529;49.242;8.670;2024-02-26T08:08:50;7.10;99.90
47765;DHT22;33529;49.242;8.670;2024-02-26T08:11:18;7.20;99.90
47765;DHT22;33529;49.242;8.670;2024-02-26T08:13:45;7.30;99.90
47765;DHT22;33529;49.242;8.670;2024-02-26T08:16:12;7.40;99.90
47765;DHT22;33529;49.242;8.670;2024-02-26T08:18:39;7.40;99.90
47765;DHT22;33529;49.242;8.670;2024-02-26T08:21:06;7.40;99.90
47765;DHT22;33529;49.242;8.670;2024-02-26T08:23:33;7.40;99.90
47765;DHT22;33529;49.242;8.670;2024-02-26T08:26:00;7.50;99.90
47765;DHT22;33529;49.242;8.670;2024-02-26T08:28:27;7.50;99.90
47765;DHT22;33529;49.242;8.670;2024-02-26T08:30:54;7.50;99.90
47765;DHT22;33529;49.242;8.670;2024-02-26T08:33:21;7.60;99.90
47765;DHT22;33529;49.242;8.670;2024-02-26T08:35:48;7.60;99.90
47765;DHT22;33529;49.242;8.670;2024-02-26T08:38:15;7.70;99.90
47765;DHT22;33529;49.242;8.670;2024-02-26T08:40:43;7.70;99.90
47765;DHT22;33529;49.242;8.670;2024-02-26T08:43:09;7.60;99.90
47765;DHT22;33529;49.242;8.670;2024-02-26T08:45:36;7.70;99.90
47765;DHT22;33529;49.242;8.670;2024-02-26T08:48:04;7.70;99.90
47765;DHT22;33529;49.242;8.670;2024-02-26T08:50:31;7.80;99.90
47765;DHT22;33529;49.242;8.670;2024-02-26T08:52:58;7.80;99.90
47765;DHT22;33529;49.242;8.670;2024-02-26T08:55:25;7.90;99.90
47765;DHT22;33529;49.242;8.670;2024-02-26T08:57:52;8.10;99.90
47765;DHT22;33529;49.242;8.670;2024-02-26T09:00:19;8.10;99.90
47765;DHT22;33529;49.242;8.670;2024-02-26T09:02:48;8.10;99.90
47765;DHT22;33529;49.242;8.670;2024-02-26T09:05:16;8.20;99.90
47765;DHT22;33529;49.242;8.670;2024-02-26T09:07:43;8.30;99.90
47765;DHT22;33529;49.242;8.670;2024-02-26T09:10:10;8.30;99.90
47765;DHT22;33529;49.242;8.670;2024-02-26T09:12:38;8.20;99.90
47765;DHT22;33529;49.242;8.670;2024-02-26T09:15:08;8.20;99.90
47765;DHT22;33529;49.242;8.670;2024-02-26T09:17:35;8.20;99.90
47765;DHT22;33529;49.242;8.670;2024-02-26T09:20:03;8.20;99.90
47765;DHT22;33529;49.242;8.670;2024-02-26T09:22:30;8.20;99.90
47765;DHT22;33529;49.242;8.670;2024-02-26T09:24:57;8.30;99.90
47765;DHT22;33529;49.242;8.670;2024-02-26T09:27:24;8.40;99.90
47765;DHT22;33529;49.242;8.670;2024-02-26T09:29:51;8.40;99.90
47765;DHT22;33529;49.242;8.670;2024-02-26T09:32:18;8.40;99.90
47765;DHT22;33529;49.242;8.670;2024-02-26T09:34:45;8.20;99.90
47765;DHT22;33529;49.242;8.670;2024-02-26T09:37:12;8.10;99.90
47765;DHT22;33529;49.242;8.670;2024-02-26T09:39:47;8.20;99.90
47765;DHT22;33529;49.242;8.670;2024-02-26T09:42:17;8.20;99.90
47765;DHT22;33529;49.242;8.670;2024-02-26T09:44:45;8.20;99.90
47765;DHT22;33529;49.242;8.670;2024-02-26T09:47:12;8.20;99.90
47765;DHT22;33529;49.242;8.670;2024-02-26T09:49:43;8.20;99.90
47765;DHT22;33529;49.242;8.670;2024-02-26T09:52:10;8.10;99.90
47765;DHT22;33529;49.242;8.670;2024-02-26T09:54:37;8.10;99.90
47765;DHT22;33529;49.242;8.670;2024-02-26T09:57:07;8.20;99.90
47765;DHT22;33529;49.242;8.670;2024-02-26T09:59:41;8.30;99.90
47765;DHT22;33529;49.242;8.670;2024-02-26T10:02:14;8.40;99.90
47765;DHT22;33529;49.242;8.670;2024-02-26T10:04:42;8.50;99.90
47765;DHT22;33529;49.242;8.670;2024-02-26T10:07:15;8.60;99.90
47765;DHT22;33529;49.242;8.670;2024-02-26T10:09:42;8.80;99.90
47765;DHT22;33529;49.242;8.670;2024-02-26T10:12:10;8.90;99.90
47765;DHT22;33529;49.242;8.670;2024-02-26T10:14:38;9.00;99.90
47765;DHT22;33529;49.242;8.670;2024-02-26T10:17:07;9.00;99.90
47765;DHT22;33529;49.242;8.670;2024-02-26T10:19:37;8.90;99.90
47765;DHT22;33529;49.242;8.670;2024-02-26T10:22:05;9.00;99.90
47765;DHT22;33529;49.242;8.670;2024-02-26T10:24:32;9.20;99.90
47765;DHT22;33529;49.242;8.670;2024-02-26T10:27:02;9.30;99.90
47765;DHT22;33529;49.242;8.670;2024-02-26T10:29:29;9.40;99.90
47765;DHT22;33529;49.242;8.670;2024-02-26T10:31:56;9.30;99.90
47765;DHT22;33529;49.242;8.670;2024-02-26T10:34:23;9.30;99.90
47765;DHT22;33529;49.242;8.670;2024-02-26T10:36:50;9.40;99.90
47765;DHT22;33529;49.242;8.670;2024-02-26T10:39:20;9.50;99.90
47765;DHT22;33529;49.242;8.670;2024-02-26T10:41:48;9.50;99.90
47765;DHT22;33529;49.242;8.670;2024-02-26T10:44:14;9.60;99.90
47765;DHT22;33529;49.242;8.670;2024-02-26T10:46:46;9.70;99.90
47765;DHT22;33529;49.242;8.670;2024-02-26T10:49:15;9.90;99.90
47765;DHT22;33529;49.242;8.670;2024-02-26T10:51:55;10.10;99.90
47765;DHT22;33529;49.242;8.670;2024-02-26T10:54:25;10.30;99.90
47765;DHT22;33529;49.242;8.670;2024-02-26T10:56:53;10.60;99.90
47765;DHT22;33529;49.242;8.670;2024-02-26T10:59:22;10.60;99.90
47765;DHT22;33529;49.242;8.670;2024-02-26T11:01:49;10.80;99.90
47765;DHT22;33529;49.242;8.670;2024-02-26T11:04:17;10.80;99.90
47765;DHT22;33529;49.242;8.670;2024-02-26T11:06:45;10.80;99.90
47765;DHT22;33529;49.242;8.670;2024-02-26T11:09:14;10.60;99.90
47765;DHT22;33529;49.242;8.670;2024-02-26T11:11:42;10.60;99.90
47765;DHT22;33529;49.242;8.670;2024-02-26T11:14:09;10.70;99.90
47765;DHT22;33529;49.242;8.670;2024-02-26T11:16:39;10.90;99.90
47765;DHT22;33529;49.242;8.670;2024-02-26T11:19:08;10.90;99.90
47765;DHT22;33529;49.242;8.670;2024-02-26T11:21:38;10.90;99.90
47765;DHT22;33529;49.242;8.670;2024-02-26T11:24:12;11.20;99.90
47765;DHT22;33529;49.242;8.670;2024-02-26T11:26:43;11.30;99.90
47765;DHT22;33529;49.242;8.670;2024-02-26T11:29:14;11.30;99.90
47765;DHT22;33529;49.242;8.670;2024-02-26T11:31:42;11.20;99.90
47765;DHT22;33529;49.242;8.670;2024-02-26T11:34:11;11.30;99.90
47765;DHT22;33529;49.242;8.670;2024-02-26T11:36:38;11.30;99.90
47765;DHT22;33529;49.242;8.670;2024-02-26T11:39:06;11.20;99.90
47765;DHT22;33529;49.242;8.670;2024-02-26T11:41:33;11.30;99.90
47765;DHT22;33529;49.242;8.670;2024-02-26T11:44:03;11.20;99.90
47765;DHT22;33529;49.242;8.670;2024-02-26T11:46:42;11.50;99.90
47765;DHT22;33529;49.242;8.670;2024-02-26T11:51:54;12.10;99.90
47765;DHT22;33529;49.242;8.670;2024-02-26T11:54:47;12.30;99.90
47765;DHT22;33529;49.242;8.670;2024-02-26T12:00:13;12.20;99.90
47765;DHT22;33529;49.242;8.670;2024-02-26T12:02:50;12.10;99.90
47765;DHT22;33529;49.242;8.670;2024-02-26T12:05:21;12.00;99.90
47765;DHT22;33529;49.242;8.670;2024-02-26T12:08:05;12.00;99.90
47765;DHT22;33529;49.242;8.670;2024-02-26T12:10:38;12.00;99.90
47765;DHT22;33529;49.242;8.670;2024-02-26T12:13:13;12.20;99.90
47765;DHT22;33529;49.242;8.670;2024-02-26T12:16:05;12.30;99.90
47765;DHT22;33529;49.242;8.670;2024-02-26T12:18:34;12.70;99.90
47765;DHT22;33529;49.242;8.670;2024-02-26T12:21:02;13.00;99.90
47765;DHT22;33529;49.242;8.670;2024-02-26T12:23:30;13.20;99.90
47765;DHT22;33529;49.242;8.670;2024-02-26T12:26:00;13.20;99.90
47765;DHT22;33529;49.242;8.670;2024-02-26T12:28:32;13.40;99.90
47765;DHT22;33529;49.242;8.670;2024-02-26T12:30:59;13.40;99.90
47765;DHT22;33529;49.242;8.670;2024-02-26T12:33:27;13.40;99.90
47765;DHT22;33529;49.242;8.670;2024-02-26T12:35:56;13.50;99.90
47765;DHT22;33529;49.242;8.670;2024-02-26T12:38:23;13.40;99.90
47765;DHT22;33529;49.242;8.670;2024-02-26T12:40:50;13.10;99.90
47765;DHT22;33529;49.242;8.670;2024-02-26T12:43:18;13.10;99.90
47765;DHT22;33529;49.242;8.670;2024-02-26T12:45:45;12.90;99.90
47765;DHT22;33529;49.242;8.670;2024-02-26T12:48:13;13.00;99.90
47765;DHT22;33529;49.242;8.670;2024-02-26T12:50:44;13.00;99.90
47765;DHT22;33529;49.242;8.670;2024-02-26T12:53:12;13.10;99.90
47765;DHT22;33529;49.242;8.670;2024-02-26T12:55:39;13.20;99.90
47765;DHT22;33529;49.242;8.670;2024-02-26T12:58:07;13.40;99.90
47765;DHT22;33529;49.242;8.670;2024-02-26T13:00:35;13.50;99.90
47765;DHT22;33529;49.242;8.670;2024-02-26T13:03:03;13.40;99.90
47765;DHT22;33529;49.242;8.670;2024-02-26T13:05:30;13.20;99.90
47765;DHT22;33529;49.242;8.670;2024-02-26T13:07:57;13.10;99.90
47765;DHT22;33529;49.242;8.670;2024-02-26T13:10:24;13.00;99.90
47765;DHT22;33529;49.242;8.670;2024-02-26T13:12:52;13.00;99.90
47765;DHT22;33529;49.242;8.670;2024-02-26T13:15:21;13.00;99.90
47765;DHT22;33529;49.242;8.670;2024-02-26T13:17:49;13.00;99.90
47765;DHT22;33529;49.242;8.670;2024-02-26T13:20:29;13.00;99.90
47765;DHT22;33529;49.242;8.670;2024-02-26T13:23:05;13.10;99.90
47765;DHT22;33529;49.242;8.670;2024-02-26T13:25:34;13.10;99.90
47765;DHT22;33529;49.242;8.670;2024-02-26T13:28:16;13.20;99.90
47765;DHT22;33529;49.242;8.670;2024-02-26T13:30:55;13.00;99.90
47765;DHT22;33529;49.242;8.670;2024-02-26T13:33:28;12.70;99.90
47765;DHT22;33529;49.242;8.670;2024-02-26T13:35:56;12.90;99.90
47765;DHT22;33529;49.242;8.670;2024-02-26T13:38:24;13.00;99.90
47765;DHT22;33529;49.242;8.670;2024-02-26T13:40:51;13.10;99.90
47765;DHT22;33529;49.242;8.670;2024-02-26T13:43:19;13.30;99.90
47765;DHT22;33529;49.242;8.670;2024-02-26T13:45:46;13.40;99.90
47765;DHT22;33529;49.242;8.670;2024-02-26T13:48:14;13.30;99.90
47765;DHT22;33529;49.242;8.670;2024-02-26T13:50:42;13.20;99.90
47765;DHT22;33529;49.242;8.670;2024-02-26T13:53:13;13.20;99.90
47765;DHT22;33529;49.242;8.670;2024-02-26T13:55:42;13.20;99.90
47765;DHT22;33529;49.242;8.670;2024-02-26T13:58:12;13.20;99.90
47765;DHT22;33529;49.242;8.670;2024-02-26T14:00:41;13.20;99.90
47765;DHT22;33529;49.242;8.670;2024-02-26T14:03:09;13.30;99.90
47765;DHT22;33529;49.242;8.670;2024-02-26T14:05:36;13.40;99.90
47765;DHT22;33529;49.242;8.670;2024-02-26T14:08:03;13.40;99.90
47765;DHT22;33529;49.242;8.670;2024-02-26T14:10:31;13.60;99.90
47765;DHT22;33529;49.242;8.670;2024-02-26T14:12:59;13.80;99.90
47765;DHT22;33529;49.242;8.670;2024-02-26T14:15:26;13.90;99.90
47765;DHT22;33529;49.242;8.670;2024-02-26T14:17:53;13.90;99.90
47765;DHT22;33529;49.242;8.670;2024-02-26T14:20:23;14.00;99.90
47765;DHT22;33529;49.242;8.670;2024-02-26T14:22:51;14.10;99.90
47765;DHT22;33529;49.242;8.670;2024-02-26T14:25:21;14.10;99.90
47765;DHT22;33529;49.242;8.670;2024-02-26T14:27:51;14.00;99.90
47765;DHT22;33529;49.242;8.670;2024-02-26T14:30:18;13.90;99.90
47765;DHT22;33529;49.242;8.670;2024-02-26T14:32:45;13.90;99.90
47765;DHT22;33529;49.242;8.670;2024-02-26T14:35:13;13.80;99.90
47765;DHT22;33529;49.242;8.670;2024-02-26T14:37:44;13.80;99.90
47765;DHT22;33529;49.242;8.670;2024-02-26T14:40:16;13.80;99.90
47765;DHT22;33529;49.242;8.670;2024-02-26T14:42:43;13.70;99.90
47765;DHT22;33529;49.242;8.670;2024-02-26T14:45:10;13.60;99.90
47765;DHT22;33529;49.242;8.670;2024-02-26T14:47:38;13.50;99.90
47765;DHT22;33529;49.242;8.670;2024-02-26T14:50:06;13.50;99.90
47765;DHT22;33529;49.242;8.670;2024-02-26T14:52:33;13.50;99.90
47765;DHT22;33529;49.242;8.670;2024-02-26T14:55:00;13.50;99.90
47765;DHT22;33529;49.242;8.670;2024-02-26T14:57:27;13.50;99.90
47765;DHT22;33529;49.242;8.670;2024-02-26T14:59:54;13.60;99.90
47765;DHT22;33529;49.242;8.670;2024-02-26T15:02:21;13.70;99.90
47765;DHT22;33529;49.242;8.670;2024-02-26T15:04:48;13.60;99.90
47765;DHT22;33529;49.242;8.670;2024-02-26T15:07:15;13.50;99.90
47765;DHT22;33529;49.242;8.670;2024-02-26T15:09:43;13.50;99.90
47765;DHT22;33529;49.242;8.670;2024-02-26T15:12:10;13.50;99.90
47765;DHT22;33529;49.242;8.670;2024-02-26T15:14:37;13.50;99.90
47765;DHT22;33529;49.242;8.670;2024-02-26T15:17:05;13.50;99.90
47765;DHT22;33529;49.242;8.670;2024-02-26T15:19:37;13.40;99.90
47765;DHT22;33529;49.242;8.670;2024-02-26T15:22:04;13.50;99.90
47765;DHT22;33529;49.242;8.670;2024-02-26T15:24:31;13.50;99.90
47765;DHT22;33529;49.242;8.670;2024-02-26T15:26:58;13.40;99.90
47765;DHT22;33529;49.242;8.670;2024-02-26T15:29:25;13.50;99.90
47765;DHT22;33529;49.242;8.670;2024-02-26T15:31:52;13.50;99.90
47765;DHT22;33529;49.242;8.670;2024-02-26T15:34:18;13.50;99.90
47765;DHT22;33529;49.242;8.670;2024-02-26T15:36:46;13.60;99.90
47765;DHT22;33529;49.242;8.670;2024-02-26T15:39:12;13.60;99.90
47765;DHT22;33529;49.242;8.670;2024-02-26T15:41:39;13.70;99.90
47765;DHT22;33529;49.242;8.670;2024-02-26T15:44:06;13.60;99.90
47765;DHT22;33529;49.242;8.670;2024-02-26T15:46:33;13.60;99.90
47765;DHT22;33529;49.242;8.670;2024-02-26T15:49:00;13.60;99.90
47765;DHT22;33529;49.242;8.670;2024-02-26T15:51:27;13.60;99.90
47765;DHT22;33529;49.242;8.670;2024-02-26T15:53:53;13.60;99.90